Time;durP1;ratioP1;P1;durP2;ratioP2;P2;SDS_P1;SDS_P2;PMS_P1;PMS_P2;Temp;Humidity;BMP_temperature;BMP_pressure;BME280_temperature;BME280_humidity;BME280_pressure;Samples;Min_cycle;Max_cycle;Signal;HPM_P1;HPM_P2
2022/04/26 03:36:37;;;;;;;6.88;6.22;;;;;;;;;;4932647;29;20214;-72
2022/04/26 03:39:04;;;;;;;7.70;6.88;;;;;;;;;;4931586;29;20237;-70
2022/04/26 03:41:31;;;;;;;7.65;6.40;;;;;;;;;;4938758;29;20210;-72
2022/04/26 03:43:59;;;;;;;8.55;7.63;;;;;;;;;;4928784;29;20447;-72
2022/04/26 03:46:26;;;;;;;7.72;6.10;;;;;;;;;;4931471;29;20824;-72
2022/04/26 03:48:54;;;;;;;10.07;7.00;;;;;;;;;;4931338;29;20214;-74
2022/04/26 03:51:21;;;;;;;7.43;6.72;;;;;;;;;;4912578;29;20191;-71
2022/04/26 03:53:48;;;;;;;7.35;6.57;;;;;;;;;;4929360;29;20203;-71
2022/04/26 03:56:16;;;;;;;7.82;6.35;;;;;;;;;;4932937;29;20206;-72
2022/04/26 03:58:43;;;;;;;10.63;6.65;;;;;;;;;;4930104;29;20194;-70
2022/04/26 04:01:10;;;;;;;6.85;6.25;;;;;;;;;;4932995;29;20203;-71
2022/04/26 04:03:38;;;;;;;8.68;6.38;;;;;;;;;;4931119;29;20218;-75
2022/04/26 04:06:07;;;;;;;6.95;6.03;;;;;;;;;;4933431;29;20242;-73
2022/04/26 04:08:34;;;;;;;6.70;5.93;;;;;;;;;;4921485;29;20202;-72
2022/04/26 04:11:01;;;;;;;5.75;5.22;;;;;;;;;;4932122;29;20198;-74
2022/04/26 04:13:28;;;;;;;8.05;6.57;;;;;;;;;;4929331;29;20203;-72
2022/04/26 04:15:56;;;;;;;6.15;5.55;;;;;;;;;;4931958;29;20211;-74
2022/04/26 04:21:10;;;;;;;11.82;6.43;;;;;;;;;;4931387;29;20202;-72
2022/04/26 04:23:37;;;;;;;6.28;5.68;;;;;;;;;;4928930;29;20207;-77
2022/04/26 04:26:04;;;;;;;5.30;4.80;;;;;;;;;;4933122;29;20215;-72
2022/04/26 04:28:32;;;;;;;5.75;4.60;;;;;;;;;;4928715;29;20199;-72
2022/04/26 04:30:59;;;;;;;7.00;6.18;;;;;;;;;;4930440;29;20215;-71
2022/04/26 04:33:27;;;;;;;5.90;4.75;;;;;;;;;;4926550;29;20207;-71
2022/04/26 04:35:54;;;;;;;6.13;5.50;;;;;;;;;;4933229;29;20681;-71
2022/04/26 04:38:22;;;;;;;5.80;5.30;;;;;;;;;;4922613;29;20211;-72
2022/04/26 04:40:49;;;;;;;6.40;5.82;;;;;;;;;;4933013;29;20219;-72
2022/04/26 04:43:16;;;;;;;7.10;4.80;;;;;;;;;;4944278;29;20203;-77
2022/04/26 04:45:43;;;;;;;7.82;4.60;;;;;;;;;;4932135;29;20202;-71
2022/04/26 04:48:10;;;;;;;7.05;5.75;;;;;;;;;;4932609;28;20584;-73
2022/04/26 04:50:37;;;;;;;5.47;4.90;;;;;;;;;;4936598;29;20191;-72
2022/04/26 04:53:04;;;;;;;7.10;6.40;;;;;;;;;;4932290;29;20195;-73
2022/04/26 04:55:33;;;;;;;6.00;4.63;;;;;;;;;;4936438;29;20214;-71
2022/04/26 04:58:00;;;;;;;5.10;4.60;;;;;;;;;;4934990;29;20206;-71
2022/04/26 05:00:27;;;;;;;5.05;4.65;;;;;;;;;;4935632;29;20204;-71
2022/04/26 05:02:55;;;;;;;6.50;4.82;;;;;;;;;;4927254;29;20662;-74
2022/04/26 05:05:22;;;;;;;4.95;4.10;;;;;;;;;;4935295;29;20191;-71
2022/04/26 05:07:50;;;;;;;5.68;4.45;;;;;;;;;;4941742;29;20222;-71
2022/04/26 05:10:17;;;;;;;7.47;5.78;;;;;;;;;;4932948;29;20202;-73
2022/04/26 05:12:45;;;;;;;4.57;4.00;;;;;;;;;;4934986;29;20208;-76
2022/04/26 05:15:13;;;;;;;7.20;4.95;;;;;;;;;;4929240;29;20214;-71
2022/04/26 05:17:40;;;;;;;6.50;4.63;;;;;;;;;;4937658;29;20296;-71
2022/04/26 05:20:08;;;;;;;5.25;4.75;;;;;;;;;;4933810;29;20203;-71
2022/04/26 05:24:53;;;;;;;7.40;4.50;;;;;;;;;;4933748;29;20289;-74
2022/04/26 05:25:21;;;;;;;4.72;4.32;;;;;;;;;;4935302;29;20606;-73
2022/04/26 05:27:49;;;;;;;6.32;4.38;;;;;;;;;;4952514;29;20228;-73
2022/04/26 05:30:16;;;;;;;6.65;4.32;;;;;;;;;;4935266;29;20206;-73
2022/04/26 05:32:44;;;;;;;4.15;3.75;;;;;;;;;;4932911;29;20263;-71
2022/04/26 05:35:11;;;;;;;6.57;4.80;;;;;;;;;;4935820;29;20192;-72
2022/04/26 05:37:39;;;;;;;5.55;5.00;;;;;;;;;;4930842;29;20320;-73
2022/04/26 05:40:06;;;;;;;7.60;5.05;;;;;;;;;;4934865;29;20222;-72
2022/04/26 05:42:37;;;;;;;4.75;4.00;;;;;;;;;;4935130;29;20195;-73
2022/04/26 05:45:06;;;;;;;5.25;4.75;;;;;;;;;;4926744;29;20207;-73
2022/04/26 05:47:33;;;;;;;4.82;4.13;;;;;;;;;;4933869;29;20253;-72
2022/04/26 05:50:00;;;;;;;6.43;4.30;;;;;;;;;;4934606;29;20199;-72
2022/04/26 05:52:27;;;;;;;4.30;3.90;;;;;;;;;;4932927;29;20532;-72
2022/04/26 05:54:54;;;;;;;4.05;3.65;;;;;;;;;;4932104;29;20219;-74
2022/04/26 05:57:21;;;;;;;5.00;3.95;;;;;;;;;;4935379;29;20206;-73
2022/04/26 05:59:48;;;;;;;5.55;5.05;;;;;;;;;;4932797;29;20202;-75
2022/04/26 06:02:16;;;;;;;7.78;5.38;;;;;;;;;;4933894;29;20198;-73
2022/04/26 06:04:44;;;;;;;6.75;5.63;;;;;;;;;;4933411;29;20316;-73
2022/04/26 06:07:11;;;;;;;5.40;4.40;;;;;;;;;;4936480;29;20223;-73
2022/04/26 06:09:38;;;;;;;5.15;4.65;;;;;;;;;;4930592;29;20210;-73
2022/04/26 06:12:06;;;;;;;6.60;4.13;;;;;;;;;;4938959;29;20199;-74
2022/04/26 06:14:33;;;;;;;5.40;4.88;;;;;;;;;;4925106;29;20574;-72
2022/04/26 06:17:00;;;;;;;4.68;4.22;;;;;;;;;;4933947;29;20202;-73
2022/04/26 06:19:28;;;;;;;4.88;4.35;;;;;;;;;;4935537;29;20198;-73
2022/04/26 06:21:55;;;;;;;5.05;3.97;;;;;;;;;;4932248;29;20196;-73
2022/04/26 06:24:23;;;;;;;3.95;3.55;;;;;;;;;;4931761;29;20558;-74
2022/04/26 06:26:50;;;;;;;4.43;3.10;;;;;;;;;;4935383;29;20215;-74
2022/04/26 06:29:17;;;;;;;3.90;3.40;;;;;;;;;;4930677;29;20211;-73
2022/04/26 06:31:46;;;;;;;7.20;4.15;;;;;;;;;;4929145;29;20210;-74
2022/04/26 06:34:13;;;;;;;3.90;3.50;;;;;;;;;;4932784;29;20206;-73
2022/04/26 06:36:42;;;;;;;4.65;3.15;;;;;;;;;;4934755;29;20221;-73
2022/04/26 06:39:09;;;;;;;5.63;3.83;;;;;;;;;;4930966;29;20226;-74
2022/04/26 06:41:36;;;;;;;4.10;3.65;;;;;;;;;;4932228;29;20195;-73
2022/04/26 06:44:03;;;;;;;5.72;3.33;;;;;;;;;;4924777;29;20561;-73
2022/04/26 06:46:30;;;;;;;4.57;3.95;;;;;;;;;;4953864;29;20206;-73
2022/04/26 06:48:59;;;;;;;4.63;3.78;;;;;;;;;;4939769;29;20203;-74
2022/04/26 06:51:26;;;;;;;4.65;3.83;;;;;;;;;;4945699;29;20669;-73
2022/04/26 06:53:54;;;;;;;3.97;3.20;;;;;;;;;;4933120;29;20202;-74
2022/04/26 06:56:21;;;;;;;3.58;3.28;;;;;;;;;;4932925;29;20198;-75
2022/04/26 06:58:48;;;;;;;8.45;3.33;;;;;;;;;;4933637;29;20201;-73
2022/04/26 07:01:15;;;;;;;2.90;2.60;;;;;;;;;;4931563;29;20610;-73
2022/04/26 07:03:43;;;;;;;4.10;3.70;;;;;;;;;;4932448;29;20190;-73
2022/04/26 07:06:10;;;;;;;5.00;4.50;;;;;;;;;;4938809;29;20194;-72
2022/04/26 07:08:37;;;;;;;4.18;2.90;;;;;;;;;;4926932;29;20237;-73
2022/04/26 07:11:05;;;;;;;5.43;3.65;;;;;;;;;;4931560;28;20265;-73
2022/04/26 07:13:32;;;;;;;3.80;3.50;;;;;;;;;;4934299;29;20404;-73
2022/04/26 07:15:59;;;;;;;5.55;3.50;;;;;;;;;;4931916;29;20590;-74
2022/04/26 07:18:27;;;;;;;4.65;4.13;;;;;;;;;;4931352;29;20224;-73
2022/04/26 07:20:54;;;;;;;4.35;3.30;;;;;;;;;;4928030;29;20254;-74
2022/04/26 07:23:21;;;;;;;5.55;4.03;;;;;;;;;;4927447;29;20514;-72
2022/04/26 07:25:48;;;;;;;4.43;4.00;;;;;;;;;;4932852;29;20194;-73
2022/04/26 07:28:18;;;;;;;4.40;4.00;;;;;;;;;;4927734;29;20223;-73
2022/04/26 07:30:46;;;;;;;4.90;4.32;;;;;;;;;;4929922;29;20203;-75
2022/04/26 07:35:57;;;;;;;4.88;4.05;;;;;;;;;;4926718;29;20910;-74
2022/04/26 07:38:24;;;;;;;4.85;4.35;;;;;;;;;;4924066;29;20757;-73
2022/04/26 07:40:51;;;;;;;4.18;3.78;;;;;;;;;;4938697;29;20215;-72
2022/04/26 07:43:21;;;;;;;4.40;4.00;;;;;;;;;;4924039;29;20206;-73
2022/04/26 07:45:48;;;;;;;6.70;5.38;;;;;;;;;;4927516;29;20206;-75
2022/04/26 07:48:16;;;;;;;5.80;4.72;;;;;;;;;;4938607;29;20219;-73
2022/04/26 07:50:44;;;;;;;4.88;4.32;;;;;;;;;;4929974;29;20213;-74
2022/04/26 07:53:12;;;;;;;5.15;4.28;;;;;;;;;;4927601;29;20640;-73
2022/04/26 07:55:39;;;;;;;16.95;13.55;;;;;;;;;;4937734;29;20693;-73
2022/04/26 07:58:06;;;;;;;10.52;8.80;;;;;;;;;;4924798;29;20207;-74
2022/04/26 08:00:35;;;;;;;11.13;8.43;;;;;;;;;;4931783;29;20276;-73
2022/04/26 08:03:03;;;;;;;11.15;7.70;;;;;;;;;;4941531;29;20283;-73
2022/04/26 08:05:30;;;;;;;9.82;7.15;;;;;;;;;;4932108;29;20195;-73
2022/04/26 08:07:57;;;;;;;11.63;8.20;;;;;;;;;;4947765;29;20230;-73
2022/04/26 08:10:24;;;;;;;9.15;8.27;;;;;;;;;;4933992;29;20203;-73
2022/04/26 08:12:51;;;;;;;8.93;7.45;;;;;;;;;;4944016;29;20662;-73
2022/04/26 08:15:19;;;;;;;9.32;8.27;;;;;;;;;;4930025;29;20214;-73
2022/04/26 08:17:49;;;;;;;9.73;7.90;;;;;;;;;;4931703;29;20207;-74
2022/04/26 08:20:16;;;;;;;8.68;7.78;;;;;;;;;;4916219;29;20250;-73
2022/04/26 08:22:43;;;;;;;9.32;7.75;;;;;;;;;;4932501;29;20567;-73
2022/04/26 08:27:55;;;;;;;9.32;6.97;;;;;;;;;;4947471;29;20225;-73
2022/04/26 08:30:22;;;;;;;7.80;7.10;;;;;;;;;;4939801;29;20194;-73
2022/04/26 08:32:50;;;;;;;11.02;8.82;;;;;;;;;;4937240;29;20217;-73
2022/04/26 08:35:18;;;;;;;8.48;7.60;;;;;;;;;;4943798;29;20195;-73
2022/04/26 08:37:45;;;;;;;10.20;7.57;;;;;;;;;;4946546;29;20665;-74
2022/04/26 08:40:13;;;;;;;12.15;8.85;;;;;;;;;;4949299;28;20222;-73
2022/04/26 08:42:40;;;;;;;9.25;6.97;;;;;;;;;;4955857;29;20676;-73
2022/04/26 08:45:08;;;;;;;7.13;6.43;;;;;;;;;;4951259;29;20204;-73
2022/04/26 08:53:09;;;;;;;7.63;6.63;;;;;;;;;;4932211;29;20205;-70
2022/04/26 08:55:42;;;;;;;9.95;5.97;;;;;;;;;;4944158;29;20282;-71
2022/04/26 08:58:11;;;;;;;9.40;6.55;;;;;;;;;;4951096;29;20517;-70
2022/04/26 09:00:39;;;;;;;6.25;5.65;;;;;;;;;;4931396;29;20817;-71
2022/04/26 09:03:08;;;;;;;8.13;6.95;;;;;;;;;;4939036;29;20278;-70
2022/04/26 09:05:37;;;;;;;8.32;6.85;;;;;;;;;;4936041;29;20211;-70
2022/04/26 09:08:19;;;;;;;6.53;5.85;;;;;;;;;;4937371;29;20233;-71
2022/04/26 09:10:47;;;;;;;7.72;6.72;;;;;;;;;;4929720;29;20203;-72
2022/04/26 09:13:15;;;;;;;9.13;7.93;;;;;;;;;;4934208;29;20203;-70
2022/04/26 09:15:43;;;;;;;6.93;6.07;;;;;;;;;;4936726;29;20306;-70
2022/04/26 09:18:15;;;;;;;18.55;15.18;;;;;;;;;;4931354;29;20235;-71
2022/04/26 09:20:44;;;;;;;18.83;14.68;;;;;;;;;;4928205;29;20302;-71
2022/04/26 09:23:15;;;;;;;19.10;12.05;;;;;;;;;;4929842;29;20217;-70
2022/04/26 09:25:43;;;;;;;21.08;13.52;;;;;;;;;;4933250;29;20640;-70
2022/04/26 09:28:10;;;;;;;17.30;12.35;;;;;;;;;;4932864;29;20230;-70
2022/04/26 09:30:37;;;;;;;13.23;10.50;;;;;;;;;;4932330;29;20203;-69
2022/04/26 09:33:04;;;;;;;13.02;10.30;;;;;;;;;;4932204;29;20234;-70
2022/04/26 09:35:32;;;;;;;12.23;10.63;;;;;;;;;;4928506;29;20215;-71
2022/04/26 09:38:00;;;;;;;15.85;11.15;;;;;;;;;;4935300;29;20285;-74
2022/04/26 09:40:31;;;;;;;13.68;9.93;;;;;;;;;;4930081;29;20590;-72
2022/04/26 09:42:58;;;;;;;15.93;10.70;;;;;;;;;;4938499;29;20198;-72
2022/04/26 09:45:26;;;;;;;10.85;9.25;;;;;;;;;;4919837;29;20210;-73
2022/04/26 09:47:58;;;;;;;12.43;9.13;;;;;;;;;;4930371;29;20360;-71
2022/04/26 09:50:27;;;;;;;10.68;9.60;;;;;;;;;;4931372;29;20211;-71
2022/04/26 09:52:56;;;;;;;14.68;10.65;;;;;;;;;;4929150;29;20199;-70
2022/04/26 09:55:25;;;;;;;11.98;10.10;;;;;;;;;;4932918;29;20662;-70
2022/04/26 09:57:53;;;;;;;13.25;10.13;;;;;;;;;;4928495;29;20202;-71
2022/04/26 10:00:24;;;;;;;12.10;9.52;;;;;;;;;;4936629;29;20562;-71
2022/04/26 10:02:53;;;;;;;11.20;10.07;;;;;;;;;;4933608;29;20213;-70
2022/04/26 10:05:21;;;;;;;11.02;9.65;;;;;;;;;;4928481;29;20636;-71
2022/04/26 10:07:48;;;;;;;12.00;9.57;;;;;;;;;;4932936;29;20241;-72
2022/04/26 10:10:15;;;;;;;12.55;9.25;;;;;;;;;;4936920;29;20202;-71
2022/04/26 10:13:31;;;;;;;10.82;9.68;;;;;;;;;;4934895;29;20202;-71
2022/04/26 10:15:32;;;;;;;11.65;8.38;;;;;;;;;;4939307;29;20199;-72
2022/04/26 10:17:59;;;;;;;13.18;9.23;;;;;;;;;;4930866;29;20199;-70
2022/04/26 10:20:42;;;;;;;11.75;9.48;;;;;;;;;;4944445;29;20198;-72
2022/04/26 10:23:10;;;;;;;16.60;10.82;;;;;;;;;;4931703;29;20199;-70
2022/04/26 10:25:37;;;;;;;11.63;10.43;;;;;;;;;;4933786;29;20206;-71
2022/04/26 10:28:32;;;;;;;12.13;9.35;;;;;;;;;;4946461;29;20594;-70
2022/04/26 10:31:01;;;;;;;10.27;9.18;;;;;;;;;;4936373;29;20198;-71
2022/04/26 10:33:38;;;;;;;11.88;9.80;;;;;;;;;;4935986;29;20214;-70
2022/04/26 10:36:23;;;;;;;13.35;10.20;;;;;;;;;;4937002;29;20205;-71
2022/04/26 10:39:05;;;;;;;10.30;8.77;;;;;;;;;;4926634;29;20626;-71
2022/04/26 10:41:35;;;;;;;10.30;9.00;;;;;;;;;;4930259;29;20230;-71
2022/04/26 10:44:21;;;;;;;10.30;8.18;;;;;;;;;;4922452;29;20499;-71
2022/04/26 10:47:10;;;;;;;9.20;8.10;;;;;;;;;;4934501;29;20808;-71
2022/04/26 10:49:43;;;;;;;9.52;8.45;;;;;;;;;;4940595;29;20222;-72
2022/04/26 10:52:25;;;;;;;9.85;8.00;;;;;;;;;;4939231;29;21277;-71
2022/04/26 10:55:03;;;;;;;10.00;9.10;;;;;;;;;;4942272;29;20207;-71
2022/04/26 10:57:31;;;;;;;9.45;8.55;;;;;;;;;;4933853;29;20570;-71
2022/04/26 10:59:59;;;;;;;8.95;8.05;;;;;;;;;;4933529;29;20194;-71
2022/04/26 11:02:28;;;;;;;13.15;9.70;;;;;;;;;;4933385;29;20623;-71
2022/04/26 11:04:59;;;;;;;8.52;7.72;;;;;;;;;;4942701;29;20202;-71
2022/04/26 11:07:27;;;;;;;11.82;9.55;;;;;;;;;;4926577;29;20305;-73
2022/04/26 11:09:55;;;;;;;7.80;6.95;;;;;;;;;;4929545;29;20223;-71
2022/04/26 11:12:23;;;;;;;10.85;8.10;;;;;;;;;;4935175;29;20203;-71
2022/04/26 11:14:51;;;;;;;9.15;8.00;;;;;;;;;;4926700;29;20658;-74
2022/04/26 11:17:19;;;;;;;9.10;7.95;;;;;;;;;;4927545;29;20202;-70
2022/04/26 11:19:51;;;;;;;8.45;7.57;;;;;;;;;;4939513;29;20574;-71
2022/04/26 11:22:18;;;;;;;8.40;7.53;;;;;;;;;;4936044;29;20205;-74
2022/04/26 11:30:24;;;;;;;9.60;8.60;;;;;;;;;;4935325;29;20228;-71
2022/04/26 11:32:51;;;;;;;9.65;8.75;;;;;;;;;;4929554;29;20329;-74
2022/04/26 11:35:20;;;;;;;13.73;8.80;;;;;;;;;;4938093;29;20194;-73
2022/04/26 11:37:48;;;;;;;9.98;8.27;;;;;;;;;;4933095;29;20196;-73
2022/04/26 11:40:22;;;;;;;11.70;9.32;;;;;;;;;;4941946;29;20581;-73
2022/04/26 11:42:50;;;;;;;8.23;7.20;;;;;;;;;;4931621;29;20202;-73
2022/04/26 11:45:17;;;;;;;9.98;9.02;;;;;;;;;;4923362;29;20681;-72
2022/04/26 11:47:48;;;;;;;9.52;7.53;;;;;;;;;;4926310;29;20614;-71
2022/04/26 11:50:16;;;;;;;9.13;7.35;;;;;;;;;;4933200;29;20320;-71
2022/04/26 11:52:45;;;;;;;8.23;7.35;;;;;;;;;;4933464;29;20209;-74
2022/04/26 11:55:28;;;;;;;10.95;6.78;;;;;;;;;;4938181;29;20282;-71
2022/04/26 11:58:07;;;;;;;7.18;6.32;;;;;;;;;;4935316;29;20195;-70
2022/04/26 12:00:35;;;;;;;9.20;8.05;;;;;;;;;;4935600;29;20223;-70
2022/04/26 12:03:02;;;;;;;9.32;8.25;;;;;;;;;;4929398;29;20209;-70
2022/04/26 12:05:30;;;;;;;7.85;6.78;;;;;;;;;;4939978;29;20723;-71
2022/04/26 12:07:59;;;;;;;8.98;6.45;;;;;;;;;;4940180;29;20688;-69
2022/04/26 12:10:30;;;;;;;6.72;5.65;;;;;;;;;;4932677;29;20222;-72
2022/04/26 12:12:58;;;;;;;6.30;5.70;;;;;;;;;;4929716;29;20228;-69
2022/04/26 12:15:26;;;;;;;6.85;6.25;;;;;;;;;;4936570;29;20213;-76
2022/04/26 12:18:03;;;;;;;6.63;5.97;;;;;;;;;;4929097;29;20281;-69
2022/04/26 12:20:30;;;;;;;5.75;5.15;;;;;;;;;;4945586;29;20731;-70
2022/04/26 12:22:59;;;;;;;6.63;5.72;;;;;;;;;;4933157;29;20210;-68
2022/04/26 12:25:26;;;;;;;6.20;5.63;;;;;;;;;;4940950;29;20213;-70
2022/04/26 12:28:02;;;;;;;5.90;5.40;;;;;;;;;;4947755;29;20202;-70
2022/04/26 12:30:30;;;;;;;6.25;5.75;;;;;;;;;;4928603;29;20202;-68
2022/04/26 12:32:57;;;;;;;5.45;5.05;;;;;;;;;;4938529;29;20202;-69
2022/04/26 12:35:24;;;;;;;5.53;5.03;;;;;;;;;;4941043;29;20207;-70
2022/04/26 12:38:05;;;;;;;7.95;5.50;;;;;;;;;;4929188;29;20566;-68
2022/04/26 12:40:32;;;;;;;5.30;4.80;;;;;;;;;;4927104;29;20706;-70
2022/04/26 12:42:59;;;;;;;5.85;5.35;;;;;;;;;;4925471;29;20574;-69
2022/04/26 12:45:27;;;;;;;8.85;6.18;;;;;;;;;;4927487;29;20682;-69
2022/04/26 12:50:52;;;;;;;5.35;4.85;;;;;;;;;;4930588;29;20294;-70
2022/04/26 12:53:24;;;;;;;7.38;5.15;;;;;;;;;;4927218;29;20204;-71
2022/04/26 12:55:52;;;;;;;7.07;6.45;;;;;;;;;;4932576;29;20201;-68
2022/04/26 12:58:20;;;;;;;5.43;4.93;;;;;;;;;;4926310;29;20210;-72
2022/04/26 13:00:50;;;;;;;5.60;5.10;;;;;;;;;;4925848;29;20202;-69
2022/04/26 13:03:18;;;;;;;5.43;4.93;;;;;;;;;;4927522;29;20203;-70
2022/04/26 13:05:46;;;;;;;4.90;4.50;;;;;;;;;;4929557;29;20207;-68
2022/04/26 13:08:14;;;;;;;6.43;5.45;;;;;;;;;;4922926;29;20757;-69
2022/04/26 13:10:43;;;;;;;5.80;5.30;;;;;;;;;;4927304;29;20594;-70
2022/04/26 13:13:10;;;;;;;8.18;6.10;;;;;;;;;;4926840;29;20273;-68
2022/04/26 13:15:38;;;;;;;6.13;4.97;;;;;;;;;;4928288;29;20219;-72
2022/04/26 13:18:05;;;;;;;5.97;5.50;;;;;;;;;;4934241;29;20286;-71
2022/04/26 13:20:33;;;;;;;5.18;4.78;;;;;;;;;;4922176;29;20218;-70
2022/04/26 13:23:00;;;;;;;6.70;5.82;;;;;;;;;;4926209;29;20713;-69
2022/04/26 13:25:27;;;;;;;6.47;4.78;;;;;;;;;;4931685;29;20222;-70
2022/04/26 13:27:55;;;;;;;6.10;5.50;;;;;;;;;;4931957;29;20202;-69
2022/04/26 13:30:23;;;;;;;6.82;6.13;;;;;;;;;;4930016;29;20223;-71
2022/04/26 13:32:52;;;;;;;6.60;6.00;;;;;;;;;;4938106;29;20212;-68
2022/04/26 13:35:19;;;;;;;5.40;5.00;;;;;;;;;;4931889;29;20207;-69
2022/04/26 13:37:46;;;;;;;8.55;5.95;;;;;;;;;;4931078;29;20203;-68
2022/04/26 13:40:13;;;;;;;6.68;6.05;;;;;;;;;;4930243;29;20439;-69
2022/04/26 13:42:41;;;;;;;5.53;4.90;;;;;;;;;;4936127;29;20199;-68
2022/04/26 13:45:09;;;;;;;9.60;6.80;;;;;;;;;;4933058;29;20203;-68
2022/04/26 13:47:38;;;;;;;5.90;5.40;;;;;;;;;;4934141;29;20203;-67
2022/04/26 13:50:06;;;;;;;6.22;5.60;;;;;;;;;;4927489;29;20227;-74
2022/04/26 13:52:33;;;;;;;5.35;4.85;;;;;;;;;;4928574;29;20266;-69
2022/04/26 13:55:00;;;;;;;5.05;4.55;;;;;;;;;;4933342;29;20191;-68
2022/04/26 13:57:27;;;;;;;6.90;6.20;;;;;;;;;;4934467;29;20207;-68
2022/04/26 13:59:54;;;;;;;7.85;7.05;;;;;;;;;;4930965;29;20569;-71
2022/04/26 14:02:23;;;;;;;12.93;6.95;;;;;;;;;;4934007;29;20203;-70
2022/04/26 14:04:50;;;;;;;12.75;5.38;;;;;;;;;;4931710;29;20195;-68
2022/04/26 14:07:17;;;;;;;6.57;5.60;;;;;;;;;;4932492;29;20210;-68
2022/04/26 14:09:44;;;;;;;6.07;4.93;;;;;;;;;;4926618;29;20249;-68
2022/04/26 14:12:14;;;;;;;8.48;7.32;;;;;;;;;;4936443;29;20197;-68
2022/04/26 14:23:02;;;;;;;7.45;6.65;;;;;;;;;;4929308;29;20217;-74
2022/04/26 14:25:29;;;;;;;8.10;7.30;;;;;;;;;;4933064;29;20651;-68
2022/04/26 14:27:56;;;;;;;7.65;6.85;;;;;;;;;;4935505;29;20195;-70
2022/04/26 14:30:23;;;;;;;8.68;7.60;;;;;;;;;;4928892;29;20231;-68
2022/04/26 14:32:54;;;;;;;8.23;6.35;;;;;;;;;;4929370;29;20194;-69
2022/04/26 14:35:21;;;;;;;9.48;6.90;;;;;;;;;;4931620;29;20203;-69
2022/04/26 14:37:49;;;;;;;7.50;6.78;;;;;;;;;;4929404;29;20291;-70
2022/04/26 14:40:16;;;;;;;7.80;7.00;;;;;;;;;;4925162;29;20477;-68
2022/04/26 14:42:45;;;;;;;7.88;7.00;;;;;;;;;;4928897;29;20248;-68
2022/04/26 14:45:12;;;;;;;7.07;6.47;;;;;;;;;;4924715;29;20198;-70
2022/04/26 14:47:40;;;;;;;6.30;5.80;;;;;;;;;;4929785;29;20203;-68
2022/04/26 14:50:09;;;;;;;6.88;6.28;;;;;;;;;;4932212;29;21733;-68
2022/04/26 14:52:37;;;;;;;6.82;6.22;;;;;;;;;;4928988;29;20199;-70
2022/04/26 14:55:04;;;;;;;7.03;6.32;;;;;;;;;;4929274;29;20234;-69
2022/04/26 14:57:31;;;;;;;9.20;7.75;;;;;;;;;;4932786;29;20199;-69
2022/04/26 14:59:59;;;;;;;5.85;5.25;;;;;;;;;;4925446;29;20199;-70
2022/04/26 15:02:26;;;;;;;6.40;5.80;;;;;;;;;;4934755;29;20205;-69
2022/04/26 15:04:53;;;;;;;5.32;4.75;;;;;;;;;;4933940;29;20205;-69
2022/04/26 15:07:22;;;;;;;9.52;6.47;;;;;;;;;;4927073;29;21443;-71
2022/04/26 15:09:52;;;;;;;5.55;5.05;;;;;;;;;;4930354;29;20229;-69
2022/04/26 15:17:50;;;;;;;4.95;4.45;;;;;;;;;;4927492;29;20230;-71
2022/04/26 15:20:18;;;;;;;5.43;4.97;;;;;;;;;;4932590;29;20199;-70
2022/04/26 15:22:47;;;;;;;4.97;4.57;;;;;;;;;;4932416;29;20199;-68
2022/04/26 15:25:15;;;;;;;5.30;4.90;;;;;;;;;;4927857;29;20211;-73
2022/04/26 15:27:42;;;;;;;4.82;4.43;;;;;;;;;;4927220;29;20592;-68
2022/04/26 15:30:10;;;;;;;4.93;4.40;;;;;;;;;;4919616;29;20215;-71
2022/04/26 15:32:37;;;;;;;5.85;5.35;;;;;;;;;;4922303;29;20271;-74
2022/04/26 15:35:05;;;;;;;4.30;3.97;;;;;;;;;;4925523;29;20203;-68
2022/04/26 15:37:32;;;;;;;6.13;5.20;;;;;;;;;;4926561;29;20211;-73
2022/04/26 15:40:00;;;;;;;6.93;6.28;;;;;;;;;;4931388;29;20231;-70
2022/04/26 15:42:27;;;;;;;6.43;5.55;;;;;;;;;;4935236;29;20203;-69
2022/04/26 15:44:54;;;;;;;5.70;5.20;;;;;;;;;;4926715;29;20210;-69
2022/04/26 15:47:21;;;;;;;4.68;4.28;;;;;;;;;;4930038;29;20258;-72
2022/04/26 15:49:49;;;;;;;6.90;6.05;;;;;;;;;;4927120;29;20225;-75
2022/04/26 15:52:16;;;;;;;7.07;6.10;;;;;;;;;;4926099;29;20609;-68
2022/04/26 15:54:43;;;;;;;7.05;6.38;;;;;;;;;;4925415;29;20202;-68
2022/04/26 15:57:12;;;;;;;9.02;8.20;;;;;;;;;;4932087;29;20290;-68
2022/04/26 15:59:40;;;;;;;10.45;8.68;;;;;;;;;;4925427;29;20293;-72
2022/04/26 16:02:07;;;;;;;10.43;9.32;;;;;;;;;;4925179;29;20206;-70
2022/04/26 16:04:34;;;;;;;8.75;7.95;;;;;;;;;;4928322;29;20202;-68
2022/04/26 16:07:01;;;;;;;8.30;7.10;;;;;;;;;;4929761;29;20203;-68
2022/04/26 16:20:29;;;;;;;6.88;5.85;;;;;;;;;;4934116;29;20263;-67
2022/04/26 16:22:56;;;;;;;7.10;6.40;;;;;;;;;;4928312;29;20199;-68
2022/04/26 16:25:23;;;;;;;7.25;6.60;;;;;;;;;;4924117;29;20662;-68
2022/04/26 16:27:52;;;;;;;6.90;5.93;;;;;;;;;;4929764;29;20908;-68
2022/04/26 16:30:19;;;;;;;6.75;5.75;;;;;;;;;;4928193;29;20230;-68
2022/04/26 16:32:46;;;;;;;11.52;6.43;;;;;;;;;;4931893;29;20225;-69
2022/04/26 16:35:13;;;;;;;6.97;4.88;;;;;;;;;;4929822;29;20195;-68
2022/04/26 16:37:41;;;;;;;5.65;5.07;;;;;;;;;;4927126;29;20210;-69
2022/04/26 16:40:09;;;;;;;5.85;5.35;;;;;;;;;;4927272;29;20233;-68
2022/04/26 16:42:36;;;;;;;7.10;6.40;;;;;;;;;;4931031;29;20207;-74
2022/04/26 16:45:05;;;;;;;5.10;4.70;;;;;;;;;;4930108;29;20202;-68
2022/04/26 16:47:32;;;;;;;4.70;4.30;;;;;;;;;;4934594;29;20202;-69
2022/04/26 16:49:59;;;;;;;6.20;5.60;;;;;;;;;;4936394;29;20682;-70
2022/04/26 16:52:26;;;;;;;6.50;5.13;;;;;;;;;;4936013;29;20194;-70
2022/04/26 16:54:54;;;;;;;6.28;5.65;;;;;;;;;;4931565;29;20203;-68
2022/04/26 16:57:21;;;;;;;7.63;4.93;;;;;;;;;;4931121;29;20191;-70
2022/04/26 16:59:49;;;;;;;6.07;5.57;;;;;;;;;;4926217;29;20203;-68
2022/04/26 17:02:17;;;;;;;5.78;5.25;;;;;;;;;;4931754;29;20827;-68
2022/04/26 17:04:44;;;;;;;5.43;5.03;;;;;;;;;;4938820;29;20201;-72
2022/04/26 17:07:12;;;;;;;6.40;5.57;;;;;;;;;;4937844;29;20199;-67
2022/04/26 17:09:39;;;;;;;5.80;5.25;;;;;;;;;;4932239;29;20670;-68
2022/04/26 17:12:08;;;;;;;4.88;4.30;;;;;;;;;;4934095;29;20222;-71
2022/04/26 17:14:35;;;;;;;5.57;4.90;;;;;;;;;;4928202;29;20224;-69
2022/04/26 17:17:04;;;;;;;6.68;4.70;;;;;;;;;;4930187;29;20201;-72
2022/04/26 17:19:32;;;;;;;5.68;4.40;;;;;;;;;;4934316;29;20230;-72
2022/04/26 17:22:01;;;;;;;4.80;4.43;;;;;;;;;;4938001;29;20234;-68
2022/04/26 17:27:12;;;;;;;5.25;4.70;;;;;;;;;;4934616;29;20359;-71
2022/04/26 17:29:40;;;;;;;5.55;5.07;;;;;;;;;;4929862;29;20196;-69
2022/04/26 17:32:12;;;;;;;6.45;4.50;;;;;;;;;;4933570;29;20206;-72
2022/04/26 17:34:41;;;;;;;5.00;4.50;;;;;;;;;;4930532;29;20206;-70
2022/04/26 17:37:08;;;;;;;5.20;4.70;;;;;;;;;;4930125;29;20562;-68
2022/04/26 17:39:35;;;;;;;4.40;4.00;;;;;;;;;;4929096;29;20231;-69
2022/04/26 17:42:02;;;;;;;5.18;4.70;;;;;;;;;;4930594;29;20199;-68
2022/04/26 17:44:29;;;;;;;5.72;4.35;;;;;;;;;;4928496;29;20537;-70
2022/04/26 17:46:56;;;;;;;4.68;4.32;;;;;;;;;;4927663;29;20199;-69
2022/04/26 17:49:23;;;;;;;5.95;4.50;;;;;;;;;;4929408;29;20210;-73
2022/04/26 17:51:51;;;;;;;4.22;3.83;;;;;;;;;;4927916;29;20227;-69
2022/04/26 17:57:03;;;;;;;4.22;3.83;;;;;;;;;;4926636;29;20429;-71
2022/04/26 17:59:30;;;;;;;3.97;3.67;;;;;;;;;;4933402;29;20203;-69
2022/04/26 18:01:57;;;;;;;4.20;3.80;;;;;;;;;;4918188;29;20226;-72
2022/04/26 18:04:24;;;;;;;4.63;4.30;;;;;;;;;;4924178;29;20209;-70
2022/04/26 18:06:53;;;;;;;4.10;3.80;;;;;;;;;;4934752;29;20217;-70
2022/04/26 18:09:20;;;;;;;4.80;4.40;;;;;;;;;;4934183;29;20201;-69
2022/04/26 18:11:47;;;;;;;5.13;4.40;;;;;;;;;;4927869;29;20920;-69
2022/04/26 18:14:14;;;;;;;4.63;4.22;;;;;;;;;;4924422;29;20206;-70
2022/04/26 18:16:42;;;;;;;4.90;4.28;;;;;;;;;;4926419;29;20205;-71
2022/04/26 18:19:09;;;;;;;4.18;3.83;;;;;;;;;;4928113;29;20206;-69
2022/04/26 18:21:36;;;;;;;6.40;4.95;;;;;;;;;;4931026;29;20215;-70
2022/04/26 18:24:04;;;;;;;3.95;3.63;;;;;;;;;;4928906;29;20203;-69
2022/04/26 18:26:31;;;;;;;4.07;3.78;;;;;;;;;;4926331;29;20247;-71
2022/04/26 18:28:59;;;;;;;4.28;3.63;;;;;;;;;;4929228;29;20203;-69
2022/04/26 18:31:29;;;;;;;4.40;4.00;;;;;;;;;;4919767;29;20233;-69
2022/04/26 18:33:56;;;;;;;5.18;4.65;;;;;;;;;;4928204;29;20251;-70
2022/04/26 18:36:24;;;;;;;5.28;4.50;;;;;;;;;;4922572;29;20233;-73
2022/04/26 18:38:52;;;;;;;5.50;4.25;;;;;;;;;;4929765;29;20270;-69
2022/04/26 18:41:21;;;;;;;5.65;4.85;;;;;;;;;;4927632;29;20210;-69
2022/04/26 18:43:49;;;;;;;4.05;3.75;;;;;;;;;;4921950;29;20198;-70
2022/04/26 18:46:19;;;;;;;5.07;4.57;;;;;;;;;;4919645;29;20203;-73
2022/04/26 18:48:47;;;;;;;6.18;5.63;;;;;;;;;;4920131;29;20563;-68
2022/04/26 18:51:14;;;;;;;4.70;4.30;;;;;;;;;;4921884;29;20222;-69
2022/04/26 18:53:41;;;;;;;5.55;5.10;;;;;;;;;;4919464;29;20206;-69
2022/04/26 18:56:09;;;;;;;5.72;5.22;;;;;;;;;;4922593;29;20206;-70
2022/04/26 18:58:37;;;;;;;5.60;5.07;;;;;;;;;;4919701;29;20297;-69
2022/04/26 19:01:05;;;;;;;5.05;4.57;;;;;;;;;;4917742;29;20213;-71
2022/04/26 19:03:32;;;;;;;4.95;4.55;;;;;;;;;;4919285;29;20678;-69
2022/04/26 19:06:02;;;;;;;5.50;5.00;;;;;;;;;;4920757;29;20215;-71
2022/04/26 19:08:29;;;;;;;6.07;5.20;;;;;;;;;;4920879;29;20726;-70
2022/04/26 19:13:43;;;;;;;5.13;4.63;;;;;;;;;;4921928;29;20214;-69
2022/04/26 19:16:10;;;;;;;6.07;5.53;;;;;;;;;;4918387;29;20199;-69
2022/04/26 19:18:37;;;;;;;5.47;4.97;;;;;;;;;;4917467;29;20519;-72